Time;durP1;ratioP1;P1;durP2;ratioP2;P2;SDS_P1;SDS_P2;PMS_P1;PMS_P2;Temp;Humidity;BMP_temperature;BMP_pressure;BME280_temperature;BME280_humidity;BME280_pressure;Samples;Min_cycle;Max_cycle;Signal;HPM_P1;HPM_P2
2022/04/29 00:00:51;;;;;;;;;;;;;;;17.85;46.88;103249.22;4980884;28;19946;-83
2022/04/29 00:03:16;;;;;;;;;;;;;;;17.84;46.84;103239.66;4996812;28;19921;-82
2022/04/29 00:05:43;;;;;;;;;;;;;;;17.83;47.02;103250.91;4980763;28;20357;-82
2022/04/29 00:08:09;;;;;;;;;;;;;;;17.83;46.93;103240.50;4996972;28;19977;-81
2022/04/29 00:10:35;;;;;;;;;;;;;;;17.83;47.01;103237.88;4978555;28;19925;-82
2022/04/29 00:13:00;;;;;;;;;;;;;;;17.83;47.07;103238.78;4977917;28;19914;-82
2022/04/29 00:15:26;;;;;;;;;;;;;;;17.83;46.79;103240.50;4994222;28;19914;-82
2022/04/29 00:17:51;;;;;;;;;;;;;;;17.82;47.03;103234.41;4995689;28;19920;-82
2022/04/29 00:20:16;;;;;;;;;;;;;;;17.83;46.97;103235.28;4979567;28;19918;-82
2022/04/29 00:22:44;;;;;;;;;;;;;;;17.82;46.92;103229.19;4994792;28;20292;-83
2022/04/29 00:25:09;;;;;;;;;;;;;;;17.82;47.04;103234.41;4978005;28;19914;-83
2022/04/29 00:27:35;;;;;;;;;;;;;;;17.81;46.93;103230.03;4979869;28;19918;-83
2022/04/29 00:30:01;;;;;;;;;;;;;;;17.82;46.98;103225.72;4991144;28;19921;-83
2022/04/29 00:32:26;;;;;;;;;;;;;;;17.82;46.98;103225.72;4997169;28;20400;-83
2022/04/29 00:34:51;;;;;;;;;;;;;;;17.81;47.07;103222.22;4979361;28;19929;-82
2022/04/29 00:37:17;;;;;;;;;;;;;;;17.81;46.96;103224.81;4979296;28;20285;-83
2022/04/29 00:39:43;;;;;;;;;;;;;;;17.81;47.03;103213.47;4996451;28;19957;-82
2022/04/29 00:42:15;;;;;;;;;;;;;;;17.80;47.07;103207.41;4995930;28;19981;-81
2022/04/29 00:44:41;;;;;;;;;;;;;;;17.79;46.82;103200.44;4976125;28;19921;-82
2022/04/29 00:47:10;;;;;;;;;;;;;;;17.79;47.12;103204.75;4975229;28;19929;-82
2022/04/29 00:49:36;;;;;;;;;;;;;;;17.79;47.06;103196.94;4974867;28;19941;-82
2022/04/29 00:52:02;;;;;;;;;;;;;;;17.79;47.28;103203.06;4993326;28;19921;-82
2022/04/29 00:54:31;;;;;;;;;;;;;;;17.79;47.06;103199.53;4994646;28;19919;-82
2022/04/29 00:56:57;;;;;;;;;;;;;;;17.79;47.17;103199.53;4993281;28;20302;-82
2022/04/29 00:59:33;;;;;;;;;;;;;;;17.79;47.31;103207.34;4993416;28;20013;-82
2022/04/29 01:02:00;;;;;;;;;;;;;;;17.78;47.22;103210.81;4975930;28;19921;-82
2022/04/29 01:04:30;;;;;;;;;;;;;;;17.77;47.20;103202.13;4976010;28;19921;-83
2022/04/29 01:06:56;;;;;;;;;;;;;;;17.78;46.99;103192.59;4993229;28;19945;-82
2022/04/29 01:09:22;;;;;;;;;;;;;;;17.78;47.44;103192.59;4960387;28;19925;-82
2022/04/29 01:11:47;;;;;;;;;;;;;;;17.77;47.27;103199.53;4988944;28;19919;-82
2022/04/29 01:14:12;;;;;;;;;;;;;;;17.77;47.19;103199.53;4972710;28;19914;-82
2022/04/29 01:16:41;;;;;;;;;;;;;;;17.77;47.25;103189.09;4973344;28;19918;-82
2022/04/29 01:19:06;;;;;;;;;;;;;;;17.76;47.29;103189.94;4989899;28;19918;-82
2022/04/29 01:21:32;;;;;;;;;;;;;;;17.76;47.12;103194.25;4972493;28;19989;-82
2022/04/29 01:23:57;;;;;;;;;;;;;;;17.76;47.27;103194.25;4958028;28;19918;-82
2022/04/29 01:26:22;;;;;;;;;;;;;;;17.76;47.30;103183.84;4990187;28;19922;-82
2022/04/29 01:28:47;;;;;;;;;;;;;;;17.76;47.38;103181.25;4958442;28;19918;-82
2022/04/29 01:31:14;;;;;;;;;;;;;;;17.76;47.19;103187.31;4991733;28;19918;-82
2022/04/29 01:33:47;;;;;;;;;;;;;;;17.75;47.19;103190.78;4960188;29;19958;-83
2022/04/29 01:36:12;;;;;;;;;;;;;;;17.75;47.31;103185.56;4977494;29;19914;-82
2022/04/29 01:38:38;;;;;;;;;;;;;;;17.75;47.35;103187.31;4978278;29;19919;-83
2022/04/29 01:41:05;;;;;;;;;;;;;;;17.75;47.36;103182.97;4977998;29;19910;-82
2022/04/29 01:43:30;;;;;;;;;;;;;;;17.74;47.32;103189.00;4994661;28;19925;-82
2022/04/29 01:45:55;;;;;;;;;;;;;;;17.75;47.29;103192.50;4991791;28;20369;-82
2022/04/29 01:48:21;;;;;;;;;;;;;;;17.75;47.30;103185.56;4975712;28;19918;-82
2022/04/29 01:50:47;;;;;;;;;;;;;;;17.74;47.42;103189.00;4992893;28;19914;-82
2022/04/29 01:53:13;;;;;;;;;;;;;;;17.73;47.18;103187.25;4974783;28;19949;-81
2022/04/29 01:55:38;;;;;;;;;;;;;;;17.73;47.36;103189.84;4973506;28;19989;-83
2022/04/29 01:58:03;;;;;;;;;;;;;;;17.73;47.31;103189.84;4977253;28;19919;-82
2022/04/29 02:00:29;;;;;;;;;;;;;;;17.73;47.17;103182.03;4979229;28;19981;-83
2022/04/29 02:02:55;;;;;;;;;;;;;;;17.73;47.34;103186.38;4979593;28;19904;-83
2022/04/29 02:05:21;;;;;;;;;;;;;;;17.73;47.38;103186.38;4964247;28;19973;-83
2022/04/29 02:07:46;;;;;;;;;;;;;;;17.72;47.31;103175.06;4980763;28;19906;-82
2022/04/29 02:10:11;;;;;;;;;;;;;;;17.72;47.32;103171.56;4979135;28;19964;-82
2022/04/29 02:12:36;;;;;;;;;;;;;;;17.71;47.27;103178.50;4980319;28;19922;-83
2022/04/29 02:15:02;;;;;;;;;;;;;;;17.70;47.23;103179.34;4994220;28;19918;-82
2022/04/29 02:17:27;;;;;;;;;;;;;;;17.72;47.27;103179.38;4995872;28;19925;-82
2022/04/29 02:19:52;;;;;;;;;;;;;;;17.72;47.25;103174.19;4978761;28;20353;-81
2022/04/29 02:22:17;;;;;;;;;;;;;;;17.71;47.19;103172.44;4995100;28;19898;-83
2022/04/29 02:24:43;;;;;;;;;;;;;;;17.70;47.14;103174.13;4978331;28;19942;-83
2022/04/29 02:27:08;;;;;;;;;;;;;;;17.72;47.25;103171.56;4962409;28;19926;-81
2022/04/29 02:29:34;;;;;;;;;;;;;;;17.70;47.33;103171.53;4995990;28;20030;-82
2022/04/29 02:31:59;;;;;;;;;;;;;;;17.71;47.06;103172.44;4982192;28;19917;-82
2022/04/29 02:34:24;;;;;;;;;;;;;;;17.70;47.25;103166.31;4966350;28;19902;-81
2022/04/29 02:36:50;;;;;;;;;;;;;;;17.71;47.04;103167.22;4996671;28;19922;-82
2022/04/29 02:39:15;;;;;;;;;;;;;;;17.70;47.16;103168.91;4977750;28;20307;-83
2022/04/29 02:41:40;;;;;;;;;;;;;;;17.69;47.25;103167.16;4963184;28;19918;-82
2022/04/29 02:44:05;;;;;;;;;;;;;;;17.69;47.26;103165.44;4994950;28;19914;-82
2022/04/29 02:46:31;;;;;;;;;;;;;;;17.69;47.24;103172.38;4976739;28;19923;-83
2022/04/29 02:48:56;;;;;;;;;;;;;;;17.71;47.27;103167.22;4993929;28;19914;-83
2022/04/29 02:51:21;;;;;;;;;;;;;;;17.68;46.98;103166.28;4996984;28;19941;-83
2022/04/29 02:53:46;;;;;;;;;;;;;;;17.69;47.09;103168.03;4995791;28;19974;-83
2022/04/29 02:56:12;;;;;;;;;;;;;;;17.68;47.21;103168.91;4978396;28;19928;-83
2022/04/29 02:58:37;;;;;;;;;;;;;;;17.69;47.23;103170.66;4978538;28;19918;-83
2022/04/29 03:01:03;;;;;;;;;;;;;;;17.67;47.11;103164.50;4996055;28;19921;-82
2022/04/29 03:03:28;;;;;;;;;;;;;;;17.68;47.03;103170.59;4997468;28;19914;-83
2022/04/29 03:05:54;;;;;;;;;;;;;;;17.67;47.18;103156.72;4995958;28;19941;-83
2022/04/29 03:08:19;;;;;;;;;;;;;;;17.68;47.05;103160.19;4977203;28;19918;-82
2022/04/29 03:10:46;;;;;;;;;;;;;;;17.67;47.34;103161.03;4997034;28;19922;-83
2022/04/29 03:13:12;;;;;;;;;;;;;;;17.66;47.30;103157.56;4997674;28;19950;-83
2022/04/29 03:15:37;;;;;;;;;;;;;;;17.67;47.10;103154.09;4981231;28;19902;-82
2022/04/29 03:18:21;;;;;;;;;;;;;;;17.67;47.46;103155.84;4960645;28;19918;-82
2022/04/29 03:20:47;;;;;;;;;;;;;;;17.66;47.22;103152.34;4982288;28;19918;-82
2022/04/29 03:23:13;;;;;;;;;;;;;;;17.66;47.31;103154.97;4985864;28;19974;-83
2022/04/29 03:25:40;;;;;;;;;;;;;;;17.66;47.30;103151.47;5003056;28;19903;-83
2022/04/29 03:36:18;;;;;;;;;;;;;;;17.65;47.17;103142.75;5584914;23;19917;-82
2022/04/29 03:38:43;;;;;;;;;;;;;;;17.64;47.14;103142.75;5005327;28;19961;-82
2022/04/29 03:41:09;;;;;;;;;;;;;;;17.64;47.19;103132.31;5005125;28;19906;-82
2022/04/29 03:43:35;;;;;;;;;;;;;;;17.65;47.25;103134.06;5005105;28;19929;-81
2022/04/29 03:46:00;;;;;;;;;;;;;;;17.65;47.08;103136.69;5004754;28;19912;-82
2022/04/29 03:48:26;;;;;;;;;;;;;;;17.64;47.31;103129.72;5021918;28;19920;-83
2022/04/29 03:50:51;;;;;;;;;;;;;;;17.64;47.27;103125.38;5004774;28;19906;-82
2022/04/29 03:53:17;;;;;;;;;;;;;;;17.65;47.20;103131.47;5005034;28;19949;-82
2022/04/29 03:55:42;;;;;;;;;;;;;;;17.63;47.20;103126.22;5004296;28;19921;-82
2022/04/29 03:58:08;;;;;;;;;;;;;;;17.63;47.21;103128.81;5004280;28;19898;-82
2022/04/29 04:00:34;;;;;;;;;;;;;;;17.63;47.21;103121.00;4999114;28;19914;-82
2022/04/29 04:03:05;;;;;;;;;;;;;;;17.63;47.32;103130.53;5004543;28;19937;-82
2022/04/29 04:05:30;;;;;;;;;;;;;;;17.62;47.30;103121.88;5021711;28;20006;-82
2022/04/29 04:07:56;;;;;;;;;;;;;;;17.61;47.32;103124.41;5021534;28;19905;-81
2022/04/29 04:10:21;;;;;;;;;;;;;;;17.61;47.24;103125.28;5003875;28;19914;-82
2022/04/29 04:12:48;;;;;;;;;;;;;;;17.61;47.30;103127.91;5020579;28;19975;-82
2022/04/29 04:15:14;;;;;;;;;;;;;;;17.60;47.32;103122.66;5003457;28;19957;-81
2022/04/29 04:17:40;;;;;;;;;;;;;;;17.61;47.25;103125.28;5003463;28;19898;-83
2022/04/29 04:20:06;;;;;;;;;;;;;;;17.61;47.24;103129.63;5004045;28;19945;-83
2022/04/29 04:22:35;;;;;;;;;;;;;;;17.62;47.23;103118.38;5003796;28;19921;-82
2022/04/29 04:25:00;;;;;;;;;;;;;;;17.61;47.25;103116.59;5004169;28;19912;-83
2022/04/29 04:32:37;;;;;;;;;;;;;;;17.60;47.14;103107.03;5040450;23;19965;-82
2022/04/29 04:35:03;;;;;;;;;;;;;;;17.60;47.29;103115.72;5001540;28;19914;-81
2022/04/29 04:37:30;;;;;;;;;;;;;;;17.60;47.35;103112.25;4998219;28;19913;-82
2022/04/29 04:39:58;;;;;;;;;;;;;;;17.60;47.02;103115.72;5015633;28;19914;-82
2022/04/29 04:42:24;;;;;;;;;;;;;;;17.60;47.27;103126.16;4998577;28;19913;-80
2022/04/29 04:44:50;;;;;;;;;;;;;;;17.60;47.30;103123.53;4991009;28;19918;-81
2022/04/29 04:47:15;;;;;;;;;;;;;;;17.60;47.32;103127.88;5009863;28;19918;-82
2022/04/29 04:49:40;;;;;;;;;;;;;;;17.61;47.17;103127.03;4993701;28;20021;-81
2022/04/29 04:52:06;;;;;;;;;;;;;;;17.62;47.02;103136.59;5009556;28;19921;-81
2022/04/29 04:54:31;;;;;;;;;;;;;;;17.61;47.07;103135.69;5009328;28;19945;-81
2022/04/29 04:56:57;;;;;;;;;;;;;;;17.61;47.26;103140.91;5017405;28;19898;-82
2022/04/29 04:59:22;;;;;;;;;;;;;;;17.61;47.07;103132.22;5017956;28;19949;-82
2022/04/29 05:01:47;;;;;;;;;;;;;;;17.60;47.26;103136.56;4985845;28;19918;-81
2022/04/29 05:04:12;;;;;;;;;;;;;;;17.61;47.07;103137.44;5016651;28;19908;-81
2022/04/29 05:06:41;;;;;;;;;;;;;;;17.62;47.01;103141.81;4998912;28;19929;-82
2022/04/29 05:09:07;;;;;;;;;;;;;;;17.62;47.32;103144.41;5015543;28;19921;-81
2022/04/29 05:11:32;;;;;;;;;;;;;;;17.64;47.27;103140.13;5018164;28;19898;-82
2022/04/29 05:13:57;;;;;;;;;;;;;;;17.63;47.22;103138.34;5001348;28;19918;-81
2022/04/29 05:16:23;;;;;;;;;;;;;;;17.62;47.18;103147.03;5000887;28;19914;-82
2022/04/29 05:18:48;;;;;;;;;;;;;;;17.63;47.05;103148.78;4999770;28;19969;-80
2022/04/29 05:21:13;;;;;;;;;;;;;;;17.63;47.19;103148.78;5001354;28;19902;-81
2022/04/29 05:23:39;;;;;;;;;;;;;;;17.63;47.15;103143.56;5002313;28;19918;-82
2022/04/29 05:26:04;;;;;;;;;;;;;;;17.62;47.13;103142.69;4985779;28;19922;-82
2022/04/29 05:28:29;;;;;;;;;;;;;;;17.63;47.01;103148.78;4994375;28;19962;-82
2022/04/29 05:30:55;;;;;;;;;;;;;;;17.64;47.04;103155.75;4983849;28;19949;-81
2022/04/29 05:33:21;;;;;;;;;;;;;;;17.65;47.13;103163.59;4983614;28;19950;-82
2022/04/29 05:35:46;;;;;;;;;;;;;;;17.65;47.03;103163.59;4964026;28;19993;-81
2022/04/29 05:38:11;;;;;;;;;;;;;;;17.64;46.92;103161.84;4998748;28;19906;-83
2022/04/29 05:43:20;;;;;;;;;;;;;;;17.66;47.07;103159.28;4995233;28;19997;-80
2022/04/29 05:45:46;;;;;;;;;;;;;;;17.80;47.21;103151.84;4981260;28;19927;-84
2022/04/29 05:48:11;;;;;;;;;;;;;;;17.88;46.91;103147.75;5266886;23;19918;-85
2022/04/29 05:50:37;;;;;;;;;;;;;;;17.96;46.86;103147.94;5001797;28;19909;-85
2022/04/29 05:53:04;;;;;;;;;;;;;;;17.98;46.81;103157.53;5002622;28;19941;-85
2022/04/29 05:55:33;;;;;;;;;;;;;;;18.01;46.78;103156.75;5002803;28;19945;-84
2022/04/29 05:57:58;;;;;;;;;;;;;;;18.01;46.56;103146.34;5002271;28;19952;-86
2022/04/29 06:00:23;;;;;;;;;;;;;;;18.03;46.63;103142.94;5001376;28;20083;-83
2022/04/29 06:02:49;;;;;;;;;;;;;;;18.04;46.83;103144.69;5002155;28;19922;-83
2022/04/29 06:07:50;;;;;;;;;;;;;;;18.09;46.61;103144.78;5863026;23;19967;-83
2022/04/29 06:36:07;;;;;;;;;;;;;;;18.05;46.49;103155.97;5473866;23;19927;-85
2022/04/29 06:38:32;;;;;;;;;;;;;;;18.03;46.37;103150.75;5001631;28;19922;-84
2022/04/29 06:51:21;;;;;;;;;;;;;;;18.03;46.35;103155.06;5671662;23;19936;-83
2022/04/29 06:53:49;;;;;;;;;;;;;;;18.03;46.33;103152.44;4963024;28;19953;-83
2022/04/29 07:06:35;;;;;;;;;;;;;;;18.08;46.12;103163.88;5567517;23;19933;-82
2022/04/29 07:09:04;;;;;;;;;;;;;;;18.00;46.09;103174.09;4968643;29;19915;-81
2022/04/29 07:11:31;;;;;;;;;;;;;;;18.03;45.84;103175.88;4970094;29;19966;-82
2022/04/29 07:13:57;;;;;;;;;;;;;;;18.04;45.87;103175.06;4973714;28;19914;-82
2022/04/29 07:16:22;;;;;;;;;;;;;;;18.05;45.63;103171.59;4990348;28;19914;-81
2022/04/29 07:18:47;;;;;;;;;;;;;;;18.05;45.79;103172.50;4989642;28;20282;-82
2022/04/29 07:21:13;;;;;;;;;;;;;;;18.05;45.79;103182.03;4972930;28;19918;-81
2022/04/29 07:23:38;;;;;;;;;;;;;;;18.04;45.82;103173.34;4974519;28;19918;-82
2022/04/29 07:26:03;;;;;;;;;;;;;;;18.04;45.92;103173.34;4959076;28;19922;-82
2022/04/29 07:28:28;;;;;;;;;;;;;;;18.03;45.91;103174.19;4976055;28;19925;-82
2022/04/29 07:30:56;;;;;;;;;;;;;;;18.03;45.95;103171.59;4993640;28;19941;-81
2022/04/29 07:33:22;;;;;;;;;;;;;;;18.03;45.93;103165.47;4991485;28;19979;-81
2022/04/29 07:44:01;;;;;;;;;;;;;;;18.08;45.68;103163.88;5010447;28;19945;-80
2022/04/29 07:46:26;;;;;;;;;;;;;;;18.09;45.73;103163.94;4979227;28;19906;-80
2022/04/29 07:48:59;;;;;;;;;;;;;;;18.09;45.67;103165.63;4974100;28;20391;-82
2022/04/29 07:51:24;;;;;;;;;;;;;;;18.08;45.99;103167.38;4986176;28;19920;-81
2022/04/29 07:53:49;;;;;;;;;;;;;;;18.08;45.98;103164.75;4994835;28;19973;-81
2022/04/29 07:56:15;;;;;;;;;;;;;;;18.08;45.91;103159.53;4996614;28;19917;-81
2022/04/29 07:58:40;;;;;;;;;;;;;;;18.10;45.97;103157.00;4974271;28;19980;-80
2022/04/29 08:01:09;;;;;;;;;;;;;;;18.11;45.87;103163.94;5003581;28;20254;-80
2022/04/29 08:03:35;;;;;;;;;;;;;;;18.12;45.66;103172.63;4968315;28;19957;-80
2022/04/29 08:06:02;;;;;;;;;;;;;;;18.11;45.93;103176.97;4983515;28;19922;-80
2022/04/29 08:08:27;;;;;;;;;;;;;;;18.13;45.77;103177.03;4985398;28;20008;-80
2022/04/29 08:10:52;;;;;;;;;;;;;;;18.13;45.70;103177.03;5000943;28;19953;-80
2022/04/29 08:13:18;;;;;;;;;;;;;;;18.13;45.79;103182.25;4984199;28;19917;-80
2022/04/29 08:15:43;;;;;;;;;;;;;;;18.14;45.79;103182.28;4999956;28;19920;-80
2022/04/29 08:18:08;;;;;;;;;;;;;;;18.14;45.79;103168.34;4983243;28;19917;-80
2022/04/29 08:20:34;;;;;;;;;;;;;;;18.14;45.50;103177.06;4981892;28;19972;-80
2022/04/29 08:22:59;;;;;;;;;;;;;;;18.15;45.63;103171.00;4981942;28;19925;-80
2022/04/29 08:25:24;;;;;;;;;;;;;;;18.17;45.71;103171.06;4981663;28;19914;-80
2022/04/29 08:27:52;;;;;;;;;;;;;;;18.17;45.59;103171.94;4998523;28;19948;-80
2022/04/29 08:30:17;;;;;;;;;;;;;;;18.19;45.56;103185.00;4981278;28;19949;-80
2022/04/29 08:32:44;;;;;;;;;;;;;;;18.19;45.46;103193.69;4980989;28;19968;-80
2022/04/29 08:35:10;;;;;;;;;;;;;;;18.17;45.37;103186.69;4998544;28;19914;-80
2022/04/29 08:37:36;;;;;;;;;;;;;;;18.17;45.53;103194.50;4998283;28;19969;-80
2022/04/29 08:40:02;;;;;;;;;;;;;;;18.15;45.69;103185.75;4999344;28;19922;-81
2022/04/29 08:42:28;;;;;;;;;;;;;;;18.15;45.52;103189.25;4965136;28;20292;-80
2022/04/29 08:44:53;;;;;;;;;;;;;;;18.14;45.24;103190.09;4963066;28;19918;-81
2022/04/29 08:47:19;;;;;;;;;;;;;;;18.14;45.45;103189.19;4979902;28;19970;-80
2022/04/29 08:49:44;;;;;;;;;;;;;;;18.13;45.38;103193.53;4984637;28;19909;-82
2022/04/29 08:52:11;;;;;;;;;;;;;;;18.14;45.40;103192.72;4974909;28;19973;-82
2022/04/29 09:00:06;;;;;;;;;;;;;;;18.14;45.31;103194.41;4991022;28;19904;-81
2022/04/29 09:02:40;;;;;;;;;;;;;;;18.14;45.77;103190.09;4987574;28;20298;-81
2022/04/29 09:05:09;;;;;;;;;;;;;;;18.18;45.67;103181.53;5345557;23;19943;-79
2022/04/29 10:14:59;;;;;;;;;;;;;;;18.25;45.39;103174.75;5559805;23;19933;-85
2022/04/29 10:23:03;;;;;;;;;;;;;;;18.29;45.37;103180.06;5019264;28;19913;-84
2022/04/29 10:25:29;;;;;;;;;;;;;;;18.32;45.25;103174.03;5000799;28;19922;-87
2022/04/29 10:51:11;;;;;;;;;;;;;;;18.37;45.35;103174.16;5555643;23;19950;-82
2022/04/29 10:53:38;;;;;;;;;;;;;;;18.38;45.39;103170.69;4959490;29;19990;-82
2022/04/29 12:36:57;;;;;;;;;;;;;;;18.47;45.64;103144.84;5572255;23;19910;-80
2022/04/29 12:42:05;;;;;;;;;;;;;;;18.50;45.44;103148.38;4973163;28;19926;-85
2022/04/29 12:47:32;;;;;;;;;;;;;;;18.48;45.35;103147.47;4978214;28;19930;-83
2022/04/29 12:50:16;;;;;;;;;;;;;;;18.48;45.18;103146.59;4978081;28;19923;-81
2022/04/29 12:52:51;;;;;;;;;;;;;;;18.47;45.25;103150.94;4972936;28;19914;-81
2022/04/29 12:57:51;;;;;;;;;;;;;;;18.50;45.44;103158.81;5016943;23;19927;-83
2022/04/29 13:00:20;;;;;;;;;;;;;;;18.49;45.46;103149.25;4981489;28;19934;-83
2022/04/29 13:02:56;;;;;;;;;;;;;;;18.48;45.44;103150.06;4981450;28;19930;-82
2022/04/29 13:08:00;;;;;;;;;;;;;;;18.53;45.29;103145.00;3673645;23;19945;31
2022/04/29 13:16:07;;;;;;;;;;;;;;;18.52;45.53;103130.19;5917429;23;19921;-80
2022/04/29 13:42:30;;;;;;;;;;;;;;;18.39;45.40;103110.78;5284336;23;20025;-84
2022/04/29 13:44:56;;;;;;;;;;;;;;;18.39;45.33;103105.56;4980326;28;19910;-86
2022/04/29 13:47:22;;;;;;;;;;;;;;;18.38;45.47;103101.19;4980923;28;19985;-84
2022/04/29 13:49:48;;;;;;;;;;;;;;;18.38;45.34;103103.81;4964288;28;19971;-86
2022/04/29 13:54:49;;;;;;;;;;;;;;;18.39;45.32;103096.84;5828283;23;21015;-83
2022/04/29 13:57:14;;;;;;;;;;;;;;;18.38;45.23;103097.69;4972136;28;20345;-84
2022/04/29 13:59:40;;;;;;;;;;;;;;;18.38;45.39;103097.69;4980432;28;19913;-86
2022/04/29 14:02:05;;;;;;;;;;;;;;;18.37;45.30;103091.59;4980085;28;19906;-85
2022/04/29 14:07:06;;;;;;;;;;;;;;;18.38;45.11;103084.66;6038555;23;20862;-82
2022/04/29 14:09:32;;;;;;;;;;;;;;;18.38;45.21;103088.16;5468250;23;19917;-83
2022/04/29 14:53:19;;;;;;;;;;;;;;;18.46;45.04;103068.34;5976677;23;20140;-83
2022/04/29 15:29:18;;;;;;;;;;;;;;;18.45;44.92;103076.16;5184253;23;19910;-86
2022/04/29 15:31:43;;;;;;;;;;;;;;;18.44;44.93;103085.69;5022148;28;19909;-85
2022/04/29 15:34:11;;;;;;;;;;;;;;;18.43;44.75;103078.72;5493479;23;19941;-86
2022/04/29 15:36:36;;;;;;;;;;;;;;;18.42;44.79;103076.97;5005403;28;19922;-86
2022/04/29 15:41:37;;;;;;;;;;;;;;;18.42;44.92;103069.16;5101325;23;20472;-78
2022/04/29 15:44:02;;;;;;;;;;;;;;;18.41;44.89;103072.59;4983815;28;19925;-78
2022/04/29 15:46:27;;;;;;;;;;;;;;;18.42;44.75;103076.97;4983848;28;19922;-78
2022/04/29 15:48:54;;;;;;;;;;;;;;;18.44;44.74;103069.16;4967867;28;19924;-78
2022/04/29 15:51:19;;;;;;;;;;;;;;;18.46;44.88;103063.13;4984124;28;19918;-78
2022/04/29 15:53:44;;;;;;;;;;;;;;;18.50;44.97;103064.97;4982574;28;20339;-77
2022/04/29 15:56:12;;;;;;;;;;;;;;;18.49;44.91;103060.59;4981640;28;19917;-78
2022/04/29 15:58:37;;;;;;;;;;;;;;;18.51;44.97;103055.44;4972669;28;19976;-78
2022/04/29 16:01:03;;;;;;;;;;;;;;;18.52;44.96;103064.13;4990756;28;19984;-78
2022/04/29 16:03:28;;;;;;;;;;;;;;;18.53;44.90;103063.25;4971527;28;20365;-78
2022/04/29 16:05:54;;;;;;;;;;;;;;;18.53;44.69;103060.66;4967515;28;19917;-77
2022/04/29 16:08:19;;;;;;;;;;;;;;;18.53;44.65;103061.56;4984196;28;19921;-78
2022/04/29 16:10:44;;;;;;;;;;;;;;;18.54;44.71;103058.09;4968661;28;19979;-77
2022/04/29 16:13:09;;;;;;;;;;;;;;;18.50;44.69;103054.53;4984198;28;19913;-78
2022/04/29 16:15:35;;;;;;;;;;;;;;;18.50;44.72;103057.13;4968854;28;19981;-78
2022/04/29 16:20:48;;;;;;;;;;;;;;;18.51;44.91;103055.44;5003213;28;19924;-78
2022/04/29 16:25:58;;;;;;;;;;;;;;;18.52;44.74;103051.09;5000848;28;19920;-78
2022/04/29 16:28:24;;;;;;;;;;;;;;;18.50;44.79;103044.09;5000515;28;19997;-78
2022/04/29 16:30:50;;;;;;;;;;;;;;;18.52;44.71;103040.66;4981290;28;19920;-78
2022/04/29 16:33:15;;;;;;;;;;;;;;;18.49;44.75;103036.25;4982054;28;19965;-78
2022/04/29 16:35:41;;;;;;;;;;;;;;;18.49;44.84;103031.94;4981456;28;20369;-78
2022/04/29 16:38:06;;;;;;;;;;;;;;;18.49;44.70;103038.88;4966559;28;19918;-78
2022/04/29 16:40:34;;;;;;;;;;;;;;;18.48;44.77;103030.16;4971913;28;19929;-78
2022/04/29 16:43:00;;;;;;;;;;;;;;;18.49;44.90;103031.06;4980392;28;19918;-78
2022/04/29 16:45:25;;;;;;;;;;;;;;;18.48;44.85;103034.50;4964499;28;20329;-77
2022/04/29 16:47:51;;;;;;;;;;;;;;;18.49;45.00;103016.28;4981255;28;19918;-78
2022/04/29 16:50:17;;;;;;;;;;;;;;;18.47;45.02;103015.38;4961880;28;19914;-78
2022/04/29 16:52:42;;;;;;;;;;;;;;;18.50;44.70;103022.38;4963369;28;19920;-77
2022/04/29 16:55:08;;;;;;;;;;;;;;;18.49;45.03;103026.72;4962073;28;19914;-78
2022/04/29 17:00:17;;;;;;;;;;;;;;;18.48;44.88;103018.84;4981808;28;19920;-78
2022/04/29 17:02:42;;;;;;;;;;;;;;;18.51;45.06;103021.53;4949826;28;19961;-78
2022/04/29 17:05:08;;;;;;;;;;;;;;;18.49;44.93;103021.50;4947913;28;19918;-78
2022/04/29 17:07:33;;;;;;;;;;;;;;;18.52;44.96;103025.03;4964149;28;19929;-78
2022/04/29 17:09:59;;;;;;;;;;;;;;;18.50;45.03;103035.41;4948879;28;19919;-78
2022/04/29 17:12:24;;;;;;;;;;;;;;;18.51;44.90;103034.56;4964987;28;19914;-78
2022/04/29 17:14:49;;;;;;;;;;;;;;;18.50;44.79;103035.41;4962914;28;19927;-78
2022/04/29 17:17:16;;;;;;;;;;;;;;;18.49;44.88;103031.06;4949491;28;20332;-77
2022/04/29 17:19:42;;;;;;;;;;;;;;;18.46;44.80;103031.84;4948467;28;20325;-78
2022/04/29 17:22:07;;;;;;;;;;;;;;;18.46;44.94;103036.19;4962302;28;19917;-78
2022/04/29 17:24:32;;;;;;;;;;;;;;;18.47;44.76;103032.75;4961113;28;19918;-78
2022/04/29 17:26:58;;;;;;;;;;;;;;;18.44;45.05;103037.88;4960752;28;19984;-78
2022/04/29 17:29:23;;;;;;;;;;;;;;;18.41;45.01;103040.44;4944847;28;19918;-78
2022/04/29 17:31:48;;;;;;;;;;;;;;;18.41;44.90;103038.69;4944647;28;19922;-78
2022/04/29 17:34:15;;;;;;;;;;;;;;;18.41;44.99;103040.44;4944660;28;19990;-78
2022/04/29 17:36:40;;;;;;;;;;;;;;;18.40;44.77;103046.47;4944985;28;19918;-78
2022/04/29 17:39:05;;;;;;;;;;;;;;;18.40;45.00;103039.56;4959493;28;20480;-78
2022/04/29 17:44:15;;;;;;;;;;;;;;;18.39;44.89;103048.19;4962845;28;20002;-78
2022/04/29 17:46:43;;;;;;;;;;;;;;;18.38;44.96;103045.56;4943680;28;20020;-78
2022/04/29 17:49:08;;;;;;;;;;;;;;;18.38;44.92;103053.38;4944169;28;19925;-78
2022/04/29 17:51:34;;;;;;;;;;;;;;;18.36;44.97;103058.56;4976765;28;20297;-78
2022/04/29 17:53:59;;;;;;;;;;;;;;;18.36;45.02;103057.69;4959206;28;19922;-78
2022/04/29 17:56:24;;;;;;;;;;;;;;;18.36;44.91;103057.69;4960572;28;20388;-78
2022/04/29 17:58:50;;;;;;;;;;;;;;;18.34;44.98;103049.84;4943133;28;20025;-78
2022/04/29 18:01:15;;;;;;;;;;;;;;;18.34;44.93;103051.56;4959300;28;19918;-78
2022/04/29 18:03:41;;;;;;;;;;;;;;;18.33;45.01;103055.88;4943385;28;19918;-78
2022/04/29 18:06:06;;;;;;;;;;;;;;;18.34;44.93;103059.38;4960264;28;19922;-77
2022/04/29 18:08:32;;;;;;;;;;;;;;;18.32;45.05;103061.97;4946036;28;19953;-77
2022/04/29 18:10:57;;;;;;;;;;;;;;;18.32;45.11;103055.88;4947628;28;19918;-77
2022/04/29 18:13:23;;;;;;;;;;;;;;;18.32;45.04;103059.34;4963981;28;20032;-78
2022/04/29 18:15:49;;;;;;;;;;;;;;;18.31;44.93;103062.78;4965484;28;19914;-77
2022/04/29 18:18:15;;;;;;;;;;;;;;;18.29;45.06;103062.78;4964126;28;19914;-77
2022/04/29 18:20:41;;;;;;;;;;;;;;;18.30;45.12;103068.84;4964324;28;20085;-77
2022/04/29 18:23:06;;;;;;;;;;;;;;;18.29;44.90;103067.97;4948742;28;19918;-77
2022/04/29 18:25:34;;;;;;;;;;;;;;;18.29;44.99;103062.78;4965132;28;19914;-78
2022/04/29 18:28:00;;;;;;;;;;;;;;;18.29;45.24;103067.97;4982441;28;20284;-77
2022/04/29 18:30:26;;;;;;;;;;;;;;;18.28;45.10;103075.75;4962451;28;20350;-77
2022/04/29 18:32:51;;;;;;;;;;;;;;;18.28;45.05;103076.63;4947928;28;19918;-77
2022/04/29 18:35:17;;;;;;;;;;;;;;;18.27;45.07;103081.84;4959891;28;19921;-77
2022/04/29 18:37:44;;;;;;;;;;;;;;;18.27;45.10;103084.44;4949227;28;20365;-77
2022/04/29 18:40:10;;;;;;;;;;;;;;;18.26;45.10;103082.66;4946871;28;19926;-78
2022/04/29 18:42:39;;;;;;;;;;;;;;;18.27;45.00;103080.09;4969714;28;19960;-78
2022/04/29 18:45:05;;;;;;;;;;;;;;;18.26;45.19;103086.13;4969451;28;19914;-77
2022/04/29 18:47:30;;;;;;;;;;;;;;;18.24;45.18;103085.22;4963810;28;19922;-78
2022/04/29 18:49:55;;;;;;;;;;;;;;;18.25;45.19;103087.00;4948847;28;19922;-77
2022/04/29 18:52:21;;;;;;;;;;;;;;;18.25;45.10;103092.22;4948429;28;20369;-77
2022/04/29 18:54:48;;;;;;;;;;;;;;;18.24;45.16;103092.16;4948865;28;20225;-77
2022/04/29 18:57:13;;;;;;;;;;;;;;;18.23;45.11;103088.69;4950646;28;19918;-77
2022/04/29 18:59:38;;;;;;;;;;;;;;;18.23;45.13;103090.41;4966468;28;19918;-77
2022/04/29 19:02:05;;;;;;;;;;;;;;;18.23;45.18;103093.91;4949939;28;19925;-77
2022/04/29 19:04:31;;;;;;;;;;;;;;;18.23;45.02;103100.84;4966118;28;19914;-78
2022/04/29 19:06:56;;;;;;;;;;;;;;;18.22;45.09;103105.16;4951118;28;19922;-77
2022/04/29 19:09:21;;;;;;;;;;;;;;;18.22;45.12;103104.28;4967037;28;19919;-77
2022/04/29 19:11:46;;;;;;;;;;;;;;;18.22;45.14;103106.88;4966088;28;19918;-77
2022/04/29 19:14:12;;;;;;;;;;;;;;;18.22;45.11;103091.25;4949124;28;19918;-79
2022/04/29 19:16:37;;;;;;;;;;;;;;;18.20;45.15;103103.34;4964197;28;19969;-79
2022/04/29 19:19:02;;;;;;;;;;;;;;;18.20;45.08;103095.53;4963499;28;19954;-79